sensor_id;sensor_type;location;lat;lon;timestamp;pressure;altitude;pressure_sealevel;temperature;humidity
56042;BME280;48756;41.374;2.066;2022-07-10T00:00:59;101257.69;;;25.90;47.49
56042;BME280;48756;41.374;2.066;2022-07-10T00:03:25;101261.03;;;25.93;46.66
56042;BME280;48756;41.374;2.066;2022-07-10T00:05:50;101249.91;;;25.73;48.84
56042;BME280;48756;41.374;2.066;2022-07-10T00:08:16;101252.81;;;25.41;49.88
56042;BME280;48756;41.374;2.066;2022-07-10T00:10:41;101255.34;;;25.57;48.65
56042;BME280;48756;41.374;2.066;2022-07-10T00:13:06;101244.09;;;25.66;47.49
56042;BME280;48756;41.374;2.066;2022-07-10T00:15:32;101243.16;;;25.81;47.96
56042;BME280;48756;41.374;2.066;2022-07-10T00:17:57;101237.84;;;25.67;47.39
56042;BME280;48756;41.374;2.066;2022-07-10T00:20:22;101241.72;;;25.61;47.79
56042;BME280;48756;41.374;2.066;2022-07-10T00:22:48;101242.22;;;25.68;46.77
56042;BME280;48756;41.374;2.066;2022-07-10T00:25:13;101237.91;;;25.65;47.05
56042;BME280;48756;41.374;2.066;2022-07-10T00:27:39;101234.88;;;25.57;47.45
56042;BME280;48756;41.374;2.066;2022-07-10T00:30:04;101228.59;;;25.58;48.29
56042;BME280;48756;41.374;2.066;2022-07-10T00:32:30;101229.72;;;25.54;48.45
56042;BME280;48756;41.374;2.066;2022-07-10T00:34:55;101230.91;;;25.22;47.85
56042;BME280;48756;41.374;2.066;2022-07-10T00:37:21;101229.66;;;25.27;48.26
56042;BME280;48756;41.374;2.066;2022-07-10T00:39:46;101226.22;;;25.40;48.82
56042;BME280;48756;41.374;2.066;2022-07-10T00:42:13;101229.84;;;25.10;49.23
56042;BME280;48756;41.374;2.066;2022-07-10T00:44:38;101221.28;;;25.19;48.96
56042;BME280;48756;41.374;2.066;2022-07-10T00:47:04;101226.13;;;25.27;48.72
56042;BME280;48756;41.374;2.066;2022-07-10T00:49:30;101217.56;;;25.36;47.72
56042;BME280;48756;41.374;2.066;2022-07-10T00:51:56;101208.63;;;25.37;48.83
56042;BME280;48756;41.374;2.066;2022-07-10T00:54:23;101214.81;;;25.38;48.12
56042;BME280;48756;41.374;2.066;2022-07-10T00:56:48;101210.69;;;25.32;47.22
56042;BME280;48756;41.374;2.066;2022-07-10T00:59:13;101206.81;;;25.09;48.33
56042;BME280;48756;41.374;2.066;2022-07-10T01:01:39;101208.41;;;25.12;48.44
56042;BME280;48756;41.374;2.066;2022-07-10T01:04:04;101212.72;;;25.14;48.00
56042;BME280;48756;41.374;2.066;2022-07-10T01:06:29;101213.50;;;25.16;48.59
56042;BME280;48756;41.374;2.066;2022-07-10T01:08:55;101206.91;;;25.08;48.46
56042;BME280;48756;41.374;2.066;2022-07-10T01:11:20;101209.00;;;25.02;49.66
56042;BME280;48756;41.374;2.066;2022-07-10T01:13:46;101204.13;;;25.09;48.88
56042;BME280;48756;41.374;2.066;2022-07-10T01:16:12;101196.03;;;24.96;50.46
56042;BME280;48756;41.374;2.066;2022-07-10T01:18:37;101199.94;;;24.91;50.25
56042;BME280;48756;41.374;2.066;2022-07-10T01:21:03;101196.88;;;24.97;50.40
56042;BME280;48756;41.374;2.066;2022-07-10T01:23:28;101198.81;;;24.95;49.67
56042;BME280;48756;41.374;2.066;2022-07-10T01:25:54;101200.41;;;24.83;49.22
56042;BME280;48756;41.374;2.066;2022-07-10T01:28:19;101195.56;;;24.90;48.78
56042;BME280;48756;41.374;2.066;2022-07-10T01:30:45;101191.66;;;24.95;49.50
56042;BME280;48756;41.374;2.066;2022-07-10T01:33:11;101195.25;;;24.80;50.36
56042;BME280;48756;41.374;2.066;2022-07-10T01:35:36;101193.34;;;24.82;51.99
56042;BME280;48756;41.374;2.066;2022-07-10T01:38:02;101191.63;;;24.81;52.25
56042;BME280;48756;41.374;2.066;2022-07-10T01:40:27;101189.66;;;24.70;52.53
56042;BME280;48756;41.374;2.066;2022-07-10T01:42:52;101190.88;;;24.79;53.53
56042;BME280;48756;41.374;2.066;2022-07-10T01:45:18;101192.00;;;24.89;53.02
56042;BME280;48756;41.374;2.066;2022-07-10T01:47:43;101190.13;;;24.77;53.33
56042;BME280;48756;41.374;2.066;2022-07-10T01:50:09;101189.94;;;24.80;53.37
56042;BME280;48756;41.374;2.066;2022-07-10T01:52:34;101182.28;;;24.60;53.98
56042;BME280;48756;41.374;2.066;2022-07-10T01:55:00;101188.00;;;24.54;54.06
56042;BME280;48756;41.374;2.066;2022-07-10T01:57:25;101184.75;;;24.63;54.28
56042;BME280;48756;41.374;2.066;2022-07-10T01:59:50;101184.88;;;24.61;53.60
56042;BME280;48756;41.374;2.066;2022-07-10T02:02:16;101185.06;;;24.58;53.34
56042;BME280;48756;41.374;2.066;2022-07-10T02:04:41;101184.19;;;24.58;54.32
56042;BME280;48756;41.374;2.066;2022-07-10T02:07:07;101183.34;;;24.57;53.29
56042;BME280;48756;41.374;2.066;2022-07-10T02:09:32;101176.31;;;24.70;53.32
56042;BME280;48756;41.374;2.066;2022-07-10T02:11:58;101170.97;;;24.56;53.60
56042;BME280;48756;41.374;2.066;2022-07-10T02:14:23;101177.91;;;24.59;53.35
56042;BME280;48756;41.374;2.066;2022-07-10T02:16:49;101168.34;;;24.70;53.34
56042;BME280;48756;41.374;2.066;2022-07-10T02:19:14;101168.69;;;24.64;53.72
56042;BME280;48756;41.374;2.066;2022-07-10T02:21:39;101172.03;;;24.68;54.25
56042;BME280;48756;41.374;2.066;2022-07-10T02:24:05;101171.94;;;24.69;54.02
56042;BME280;48756;41.374;2.066;2022-07-10T02:26:30;101170.31;;;24.53;54.89
56042;BME280;48756;41.374;2.066;2022-07-10T02:28:56;101168.84;;;24.17;56.38
56042;BME280;48756;41.374;2.066;2022-07-10T02:31:21;101164.44;;;24.02;57.10
56042;BME280;48756;41.374;2.066;2022-07-10T02:33:46;101171.72;;;23.98;56.76
56042;BME280;48756;41.374;2.066;2022-07-10T02:36:12;101172.56;;;23.85;57.73
56042;BME280;48756;41.374;2.066;2022-07-10T02:38:37;101169.13;;;23.67;58.21
56042;BME280;48756;41.374;2.066;2022-07-10T02:41:02;101168.97;;;23.70;58.25
56042;BME280;48756;41.374;2.066;2022-07-10T02:43:28;101171.19;;;23.77;57.95
56042;BME280;48756;41.374;2.066;2022-07-10T02:45:53;101163.25;;;23.92;57.51
56042;BME280;48756;41.374;2.066;2022-07-10T02:48:19;101173.19;;;24.04;57.32
56042;BME280;48756;41.374;2.066;2022-07-10T02:50:44;101173.28;;;24.02;56.70
56042;BME280;48756;41.374;2.066;2022-07-10T02:53:09;101168.94;;;23.86;57.76
56042;BME280;48756;41.374;2.066;2022-07-10T02:55:35;101168.47;;;23.63;58.38
56042;BME280;48756;41.374;2.066;2022-07-10T02:58:00;101170.16;;;23.80;57.43
56042;BME280;48756;41.374;2.066;2022-07-10T03:00:26;101163.22;;;23.77;57.01
56042;BME280;48756;41.374;2.066;2022-07-10T03:02:52;101164.59;;;23.69;57.55
56042;BME280;48756;41.374;2.066;2022-07-10T03:05:18;101169.81;;;23.86;56.73
56042;BME280;48756;41.374;2.066;2022-07-10T03:07:43;101167.31;;;24.13;55.48
56042;BME280;48756;41.374;2.066;2022-07-10T03:10:08;101157.91;;;24.07;54.69
56042;BME280;48756;41.374;2.066;2022-07-10T03:12:34;101163.63;;;24.16;53.97
56042;BME280;48756;41.374;2.066;2022-07-10T03:14:59;101155.97;;;24.25;53.63
56042;BME280;48756;41.374;2.066;2022-07-10T03:17:25;101157.91;;;24.07;54.11
56042;BME280;48756;41.374;2.066;2022-07-10T03:19:50;101153.03;;;24.00;54.17
56042;BME280;48756;41.374;2.066;2022-07-10T03:22:15;101148.47;;;24.02;53.71
56042;BME280;48756;41.374;2.066;2022-07-10T03:24:41;101149.25;;;24.04;53.01
56042;BME280;48756;41.374;2.066;2022-07-10T03:27:08;101148.78;;;24.11;52.74
56042;BME280;48756;41.374;2.066;2022-07-10T03:29:33;101143.94;;;24.18;52.28
56042;BME280;48756;41.374;2.066;2022-07-10T03:31:59;101149.00;;;24.23;52.35
56042;BME280;48756;41.374;2.066;2022-07-10T03:34:24;101156.16;;;24.22;52.03
56042;BME280;48756;41.374;2.066;2022-07-10T03:36:49;101148.66;;;24.29;51.85
56042;BME280;48756;41.374;2.066;2022-07-10T03:39:16;101143.72;;;24.37;51.51
56042;BME280;48756;41.374;2.066;2022-07-10T03:41:41;101153.47;;;24.22;52.18
56042;BME280;48756;41.374;2.066;2022-07-10T03:44:07;101155.97;;;24.25;52.42
56042;BME280;48756;41.374;2.066;2022-07-10T03:46:32;101164.00;;;24.09;52.83
56042;BME280;48756;41.374;2.066;2022-07-10T03:48:58;101156.84;;;24.10;52.52
56042;BME280;48756;41.374;2.066;2022-07-10T03:51:23;101150.28;;;24.01;52.72
56042;BME280;48756;41.374;2.066;2022-07-10T03:53:48;101148.47;;;24.02;52.71
56042;BME280;48756;41.374;2.066;2022-07-10T03:56:14;101151.47;;;23.96;53.18
56042;BME280;48756;41.374;2.066;2022-07-10T03:58:59;101149.16;;;24.05;52.94
56042;BME280;48756;41.374;2.066;2022-07-10T04:01:24;101147.88;;;23.97;53.36
56042;BME280;48756;41.374;2.066;2022-07-10T04:03:50;101148.91;;;23.94;53.23
56042;BME280;48756;41.374;2.066;2022-07-10T04:06:15;101148.50;;;24.16;52.50
56042;BME280;48756;41.374;2.066;2022-07-10T04:08:40;101140.97;;;24.08;52.85
56042;BME280;48756;41.374;2.066;2022-07-10T04:11:06;101138.50;;;24.05;53.01
56042;BME280;48756;41.374;2.066;2022-07-10T04:13:31;101146.78;;;23.85;53.77
56042;BME280;48756;41.374;2.066;2022-07-10T04:15:57;101140.91;;;23.94;53.51
56042;BME280;48756;41.374;2.066;2022-07-10T04:18:22;101139.31;;;23.92;53.88
56042;BME280;48756;41.374;2.066;2022-07-10T04:20:47;101139.19;;;23.63;54.18
56042;BME280;48756;41.374;2.066;2022-07-10T04:23:13;101145.72;;;23.58;54.53
56042;BME280;48756;41.374;2.066;2022-07-10T04:25:38;101145.34;;;23.48;54.62
56042;BME280;48756;41.374;2.066;2022-07-10T04:28:03;101145.03;;;23.54;54.64
56042;BME280;48756;41.374;2.066;2022-07-10T04:30:29;101142.72;;;23.64;54.29
56042;BME280;48756;41.374;2.066;2022-07-10T04:32:54;101149.53;;;23.83;53.78
56042;BME280;48756;41.374;2.066;2022-07-10T04:35:19;101136.72;;;23.90;53.90
56042;BME280;48756;41.374;2.066;2022-07-10T04:37:45;101140.75;;;23.97;53.47
56042;BME280;48756;41.374;2.066;2022-07-10T04:40:11;101143.72;;;23.77;54.29
56042;BME280;48756;41.374;2.066;2022-07-10T04:42:37;101137.56;;;23.76;54.43
56042;BME280;48756;41.374;2.066;2022-07-10T04:45:02;101132.72;;;23.83;53.99
56042;BME280;48756;41.374;2.066;2022-07-10T04:47:27;101140.03;;;23.79;54.46
56042;BME280;48756;41.374;2.066;2022-07-10T04:49:53;101143.56;;;23.64;54.43
56042;BME280;48756;41.374;2.066;2022-07-10T04:52:18;101135.00;;;23.59;55.26
56042;BME280;48756;41.374;2.066;2022-07-10T04:54:43;101146.88;;;23.52;55.71
56042;BME280;48756;41.374;2.066;2022-07-10T04:57:09;101141.84;;;23.63;54.94
56042;BME280;48756;41.374;2.066;2022-07-10T04:59:34;101138.44;;;23.61;55.27
56042;BME280;48756;41.374;2.066;2022-07-10T05:02:00;101134.91;;;23.76;54.65
56042;BME280;48756;41.374;2.066;2022-07-10T05:04:25;101129.84;;;23.56;55.25
56042;BME280;48756;41.374;2.066;2022-07-10T05:06:50;101131.78;;;23.68;55.06
56042;BME280;48756;41.374;2.066;2022-07-10T05:09:16;101128.16;;;23.53;55.15
56042;BME280;48756;41.374;2.066;2022-07-10T05:11:45;101133.03;;;23.63;54.75
56042;BME280;48756;41.374;2.066;2022-07-10T05:14:10;101131.78;;;23.52;55.30
56042;BME280;48756;41.374;2.066;2022-07-10T05:16:35;101130.34;;;23.63;54.96
56042;BME280;48756;41.374;2.066;2022-07-10T05:19:01;101132.47;;;23.72;54.79
56042;BME280;48756;41.374;2.066;2022-07-10T05:21:26;101134.28;;;23.56;54.99
56042;BME280;48756;41.374;2.066;2022-07-10T05:23:51;101131.53;;;23.73;54.74
56042;BME280;48756;41.374;2.066;2022-07-10T05:26:17;101136.16;;;23.69;54.64
56042;BME280;48756;41.374;2.066;2022-07-10T05:28:43;101133.50;;;23.69;54.74
56042;BME280;48756;41.374;2.066;2022-07-10T05:31:08;101140.53;;;23.70;54.69
56042;BME280;48756;41.374;2.066;2022-07-10T05:33:33;101132.06;;;23.79;54.69
56042;BME280;48756;41.374;2.066;2022-07-10T05:35:59;101132.63;;;23.85;54.29
56042;BME280;48756;41.374;2.066;2022-07-10T05:38:24;101131.84;;;24.12;53.72
56042;BME280;48756;41.374;2.066;2022-07-10T05:40:49;101134.97;;;24.05;53.63
56042;BME280;48756;41.374;2.066;2022-07-10T05:43:15;101136.50;;;24.09;53.74
56042;BME280;48756;41.374;2.066;2022-07-10T05:45:41;101140.34;;;23.89;53.84
56042;BME280;48756;41.374;2.066;2022-07-10T05:48:06;101133.75;;;23.80;54.34
56042;BME280;48756;41.374;2.066;2022-07-10T05:50:31;101137.00;;;23.86;54.35
56042;BME280;48756;41.374;2.066;2022-07-10T05:52:57;101134.66;;;23.95;54.39
56042;BME280;48756;41.374;2.066;2022-07-10T05:55:22;101146.41;;;24.21;53.38
56042;BME280;48756;41.374;2.066;2022-07-10T05:57:49;101141.44;;;24.01;53.86
56042;BME280;48756;41.374;2.066;2022-07-10T06:00:15;101146.88;;;24.29;53.54
56042;BME280;48756;41.374;2.066;2022-07-10T06:02:40;101143.84;;;24.20;53.07
56042;BME280;48756;41.374;2.066;2022-07-10T06:05:06;101145.72;;;24.33;53.11
56042;BME280;48756;41.374;2.066;2022-07-10T06:07:31;101146.13;;;24.56;52.79
56042;BME280;48756;41.374;2.066;2022-07-10T06:09:57;101155.25;;;24.37;52.96
56042;BME280;48756;41.374;2.066;2022-07-10T06:12:22;101149.84;;;24.53;52.80
56042;BME280;48756;41.374;2.066;2022-07-10T06:14:47;101142.03;;;24.64;52.61
56042;BME280;48756;41.374;2.066;2022-07-10T06:17:13;101146.13;;;24.84;52.37
56042;BME280;48756;41.374;2.066;2022-07-10T06:19:38;101156.91;;;24.68;52.25
56042;BME280;48756;41.374;2.066;2022-07-10T06:22:03;101163.38;;;25.07;51.38
56042;BME280;48756;41.374;2.066;2022-07-10T06:24:47;101167.41;;;25.14;51.74
56042;BME280;48756;41.374;2.066;2022-07-10T06:27:12;101164.88;;;25.25;51.07
56042;BME280;48756;41.374;2.066;2022-07-10T06:29:38;101159.38;;;25.55;50.51
56042;BME280;48756;41.374;2.066;2022-07-10T06:32:04;101160.53;;;25.51;50.17
56042;BME280;48756;41.374;2.066;2022-07-10T06:34:29;101156.69;;;25.70;49.54
56042;BME280;48756;41.374;2.066;2022-07-10T06:36:54;101168.63;;;25.91;49.48
56042;BME280;48756;41.374;2.066;2022-07-10T06:39:20;101160.25;;;26.10;48.91
56042;BME280;48756;41.374;2.066;2022-07-10T06:41:45;101160.56;;;26.05;48.29
56042;BME280;48756;41.374;2.066;2022-07-10T06:44:10;101163.84;;;25.96;49.02
56042;BME280;48756;41.374;2.066;2022-07-10T06:46:36;101167.91;;;26.41;47.60
56042;BME280;48756;41.374;2.066;2022-07-10T06:49:01;101165.34;;;26.52;47.63
56042;BME280;48756;41.374;2.066;2022-07-10T06:51:26;101168.84;;;26.28;48.17
56042;BME280;48756;41.374;2.066;2022-07-10T06:53:52;101170.81;;;26.51;47.18
56042;BME280;48756;41.374;2.066;2022-07-10T06:56:17;101168.66;;;26.69;47.73
56042;BME280;48756;41.374;2.066;2022-07-10T06:58:43;101170.56;;;26.41;48.06
56042;BME280;48756;41.374;2.066;2022-07-10T07:01:09;101167.28;;;26.50;47.24
56042;BME280;48756;41.374;2.066;2022-07-10T07:03:34;101177.09;;;26.63;47.82
56042;BME280;48756;41.374;2.066;2022-07-10T07:05:59;101176.56;;;26.83;46.08
56042;BME280;48756;41.374;2.066;2022-07-10T07:08:25;101176.69;;;27.07;46.24
56042;BME280;48756;41.374;2.066;2022-07-10T07:10:50;101176.56;;;27.08;45.65
56042;BME280;48756;41.374;2.066;2022-07-10T07:13:15;101172.47;;;27.28;46.10
56042;BME280;48756;41.374;2.066;2022-07-10T07:15:41;101168.94;;;27.15;45.99
56042;BME280;48756;41.374;2.066;2022-07-10T07:18:16;101170.28;;;27.46;44.93
56042;BME280;48756;41.374;2.066;2022-07-10T07:20:41;101164.22;;;27.55;45.59
56042;BME280;48756;41.374;2.066;2022-07-10T07:23:25;101171.34;;;27.43;45.28
56042;BME280;48756;41.374;2.066;2022-07-10T07:25:51;101172.34;;;27.30;45.49
56042;BME280;48756;41.374;2.066;2022-07-10T07:28:17;101174.81;;;27.57;45.54
56042;BME280;48756;41.374;2.066;2022-07-10T07:30:44;101172.59;;;27.51;45.53
56042;BME280;48756;41.374;2.066;2022-07-10T07:33:09;101178.59;;;27.54;44.99
56042;BME280;48756;41.374;2.066;2022-07-10T07:35:36;101164.66;;;28.10;45.11
56042;BME280;48756;41.374;2.066;2022-07-10T07:38:02;101166.25;;;28.58;43.92
56042;BME280;48756;41.374;2.066;2022-07-10T07:40:28;101167.22;;;28.68;43.30
56042;BME280;48756;41.374;2.066;2022-07-10T07:42:54;101167.13;;;28.81;42.62
56042;BME280;48756;41.374;2.066;2022-07-10T07:45:20;101159.56;;;28.75;42.54
56042;BME280;48756;41.374;2.066;2022-07-10T07:47:47;101162.88;;;28.79;43.80
56042;BME280;48756;41.374;2.066;2022-07-10T07:50:16;101162.56;;;28.48;42.73
56042;BME280;48756;41.374;2.066;2022-07-10T07:52:42;101161.41;;;28.75;42.67
56042;BME280;48756;41.374;2.066;2022-07-10T07:55:08;101159.69;;;28.85;42.28
56042;BME280;48756;41.374;2.066;2022-07-10T07:57:33;101160.53;;;29.30;41.66
56042;BME280;48756;41.374;2.066;2022-07-10T07:59:58;101158.09;;;29.81;40.09
56042;BME280;48756;41.374;2.066;2022-07-10T08:02:24;101158.47;;;29.77;40.19
56042;BME280;48756;41.374;2.066;2022-07-10T08:04:49;101157.78;;;29.96;40.67
56042;BME280;48756;41.374;2.066;2022-07-10T08:07:15;101149.19;;;30.13;39.14
56042;BME280;48756;41.374;2.066;2022-07-10T08:09:40;101151.25;;;29.88;40.26
56042;BME280;48756;41.374;2.066;2022-07-10T08:12:05;101149.25;;;30.23;39.39
56042;BME280;48756;41.374;2.066;2022-07-10T08:14:31;101140.72;;;30.38;37.09
56042;BME280;48756;41.374;2.066;2022-07-10T08:16:56;101142.00;;;30.86;37.60
56042;BME280;48756;41.374;2.066;2022-07-10T08:19:21;101141.69;;;30.79;37.44
56042;BME280;48756;41.374;2.066;2022-07-10T08:21:47;101142.34;;;31.02;36.70
56042;BME280;48756;41.374;2.066;2022-07-10T08:24:12;101131.50;;;31.23;35.88
56042;BME280;48756;41.374;2.066;2022-07-10T08:26:39;101136.94;;;31.52;35.21
56042;BME280;48756;41.374;2.066;2022-07-10T08:29:05;101131.13;;;31.47;35.43
56042;BME280;48756;41.374;2.066;2022-07-10T08:31:30;101123.75;;;31.68;35.88
56042;BME280;48756;41.374;2.066;2022-07-10T08:33:55;101122.22;;;32.04;34.65
56042;BME280;48756;41.374;2.066;2022-07-10T08:36:21;101125.03;;;31.54;35.33
56042;BME280;48756;41.374;2.066;2022-07-10T08:38:46;101124.06;;;32.04;32.84
56042;BME280;48756;41.374;2.066;2022-07-10T08:41:11;101133.88;;;31.95;34.02
56042;BME280;48756;41.374;2.066;2022-07-10T08:43:37;101126.56;;;32.44;32.34
56042;BME280;48756;41.374;2.066;2022-07-10T08:46:03;101127.72;;;32.41;31.24
56042;BME280;48756;41.374;2.066;2022-07-10T08:48:29;101125.38;;;32.56;32.59
56042;BME280;48756;41.374;2.066;2022-07-10T08:50:57;101119.47;;;32.43;33.49
56042;BME280;48756;41.374;2.066;2022-07-10T08:53:29;101121.25;;;32.62;31.80
56042;BME280;48756;41.374;2.066;2022-07-10T08:55:56;101118.88;;;32.49;31.40
56042;BME280;48756;41.374;2.066;2022-07-10T08:58:21;101113.81;;;32.73;32.02
56042;BME280;48756;41.374;2.066;2022-07-10T09:00:47;101112.88;;;33.19;29.87
56042;BME280;48756;41.374;2.066;2022-07-10T09:03:13;101102.19;;;33.00;30.01
56042;BME280;48756;41.374;2.066;2022-07-10T09:05:38;101109.63;;;32.61;30.78
56042;BME280;48756;41.374;2.066;2022-07-10T09:08:03;101108.41;;;33.38;28.99
56042;BME280;48756;41.374;2.066;2022-07-10T09:10:29;101111.66;;;33.77;27.54
56042;BME280;48756;41.374;2.066;2022-07-10T09:12:58;101105.50;;;34.10;27.26
56042;BME280;48756;41.374;2.066;2022-07-10T09:15:28;101100.59;;;34.06;26.77
56042;BME280;48756;41.374;2.066;2022-07-10T09:18:03;101112.41;;;33.34;28.49
56042;BME280;48756;41.374;2.066;2022-07-10T09:20:32;101113.25;;;33.70;27.79
56042;BME280;48756;41.374;2.066;2022-07-10T09:25:42;101112.50;;;33.77;26.79
56042;BME280;48756;41.374;2.066;2022-07-10T09:28:07;101115.50;;;34.36;26.04
56042;BME280;48756;41.374;2.066;2022-07-10T09:30:37;101110.72;;;34.56;25.38
56042;BME280;48756;41.374;2.066;2022-07-10T09:41:20;101104.31;;;34.57;25.81
56042;BME280;48756;41.374;2.066;2022-07-10T09:46:18;101110.31;;;34.77;25.95
56042;BME280;48756;41.374;2.066;2022-07-10T09:48:44;101113.53;;;34.80;26.40
56042;BME280;48756;41.374;2.066;2022-07-10T09:51:10;101119.13;;;35.13;25.50
56042;BME280;48756;41.374;2.066;2022-07-10T09:53:39;101105.25;;;35.24;25.79
56042;BME280;48756;41.374;2.066;2022-07-10T09:56:08;101109.59;;;35.00;25.51
56042;BME280;48756;41.374;2.066;2022-07-10T09:58:34;101119.25;;;35.03;27.41
56042;BME280;48756;41.374;2.066;2022-07-10T10:01:03;101103.53;;;34.73;28.07
56042;BME280;48756;41.374;2.066;2022-07-10T10:03:33;101112.66;;;34.37;29.22
56042;BME280;48756;41.374;2.066;2022-07-10T10:06:01;101105.53;;;35.05;28.46
56042;BME280;48756;41.374;2.066;2022-07-10T10:08:28;101107.28;;;34.80;28.70
56042;BME280;48756;41.374;2.066;2022-07-10T10:10:56;101116.25;;;35.22;28.60
56042;BME280;48756;41.374;2.066;2022-07-10T10:13:22;101108.06;;;34.98;30.02
56042;BME280;48756;41.374;2.066;2022-07-10T10:15:49;101099.50;;;34.77;29.39
56042;BME280;48756;41.374;2.066;2022-07-10T10:18:15;101105.44;;;35.30;28.10
56042;BME280;48756;41.374;2.066;2022-07-10T10:20:41;101108.81;;;35.16;28.86
56042;BME280;48756;41.374;2.066;2022-07-10T10:23:26;101099.97;;;34.72;27.88
56042;BME280;48756;41.374;2.066;2022-07-10T10:25:53;101097.75;;;35.02;28.37
56042;BME280;48756;41.374;2.066;2022-07-10T10:28:19;101095.47;;;35.31;28.25
56042;BME280;48756;41.374;2.066;2022-07-10T10:30:49;101092.28;;;34.85;28.39
56042;BME280;48756;41.374;2.066;2022-07-10T10:35:55;101090.66;;;35.83;27.81
56042;BME280;48756;41.374;2.066;2022-07-10T10:38:20;101091.28;;;34.60;28.83
56042;BME280;48756;41.374;2.066;2022-07-10T10:40:47;101087.44;;;34.63;28.88
56042;BME280;48756;41.374;2.066;2022-07-10T10:43:16;101089.59;;;34.59;29.33
56042;BME280;48756;41.374;2.066;2022-07-10T10:45:45;101086.97;;;34.84;28.60
56042;BME280;48756;41.374;2.066;2022-07-10T10:48:15;101086.72;;;35.53;29.17
56042;BME280;48756;41.374;2.066;2022-07-10T10:50:42;101090.81;;;34.99;29.30
56042;BME280;48756;41.374;2.066;2022-07-10T10:53:13;101078.06;;;35.50;27.98
56042;BME280;48756;41.374;2.066;2022-07-10T10:55:39;101062.16;;;35.79;27.80
56042;BME280;48756;41.374;2.066;2022-07-10T11:01:23;101070.16;;;34.98;30.43
56042;BME280;48756;41.374;2.066;2022-07-10T11:09:30;101064.63;;;36.38;28.96
56042;BME280;48756;41.374;2.066;2022-07-10T11:12:06;101054.13;;;36.35;28.33
56042;BME280;48756;41.374;2.066;2022-07-10T11:14:32;101060.41;;;36.27;27.32
56042;BME280;48756;41.374;2.066;2022-07-10T11:16:58;101061.97;;;36.22;27.21
56042;BME280;48756;41.374;2.066;2022-07-10T11:19:24;101058.44;;;35.64;27.71
56042;BME280;48756;41.374;2.066;2022-07-10T11:21:58;101064.56;;;34.57;31.46
56042;BME280;48756;41.374;2.066;2022-07-10T11:27:15;101048.94;;;35.44;33.75
56042;BME280;48756;41.374;2.066;2022-07-10T11:29:46;101056.00;;;35.28;35.05
56042;BME280;48756;41.374;2.066;2022-07-10T11:32:16;101058.69;;;35.28;35.84
56042;BME280;48756;41.374;2.066;2022-07-10T11:34:42;101055.38;;;35.43;33.16
56042;BME280;48756;41.374;2.066;2022-07-10T11:37:14;101057.69;;;35.29;32.53
56042;BME280;48756;41.374;2.066;2022-07-10T11:39:40;101060.00;;;35.00;33.81
56042;BME280;48756;41.374;2.066;2022-07-10T11:42:05;101058.22;;;34.83;34.90
56042;BME280;48756;41.374;2.066;2022-07-10T11:44:32;101053.13;;;34.72;35.09
56042;BME280;48756;41.374;2.066;2022-07-10T11:46:57;101053.44;;;35.27;33.96
56042;BME280;48756;41.374;2.066;2022-07-10T11:49:23;101049.88;;;35.18;35.08
56042;BME280;48756;41.374;2.066;2022-07-10T11:51:48;101043.00;;;35.89;31.82
56042;BME280;48756;41.374;2.066;2022-07-10T11:54:15;101037.19;;;35.27;31.55
56042;BME280;48756;41.374;2.066;2022-07-10T11:56:50;101046.41;;;35.34;32.31
56042;BME280;48756;41.374;2.066;2022-07-10T11:59:17;101036.91;;;35.71;32.17
56042;BME280;48756;41.374;2.066;2022-07-10T12:01:45;101044.34;;;35.44;33.39
56042;BME280;48756;41.374;2.066;2022-07-10T12:04:11;101047.50;;;34.05;31.10
56042;BME280;48756;41.374;2.066;2022-07-10T12:06:38;101038.09;;;35.52;32.38
56042;BME280;48756;41.374;2.066;2022-07-10T12:09:07;101036.06;;;35.78;32.86
56042;BME280;48756;41.374;2.066;2022-07-10T12:11:33;101025.56;;;35.83;33.32
56042;BME280;48756;41.374;2.066;2022-07-10T12:14:12;101032.63;;;36.09;32.61
56042;BME280;48756;41.374;2.066;2022-07-10T12:16:42;101043.88;;;35.57;33.67
56042;BME280;48756;41.374;2.066;2022-07-10T12:19:14;101044.69;;;34.83;32.83
56042;BME280;48756;41.374;2.066;2022-07-10T12:21:43;101034.69;;;35.34;33.58
56042;BME280;48756;41.374;2.066;2022-07-10T12:24:09;101042.59;;;35.11;33.11
56042;BME280;48756;41.374;2.066;2022-07-10T12:26:35;101031.16;;;35.90;31.20
56042;BME280;48756;41.374;2.066;2022-07-10T12:29:02;101034.19;;;35.95;31.17
56042;BME280;48756;41.374;2.066;2022-07-10T12:31:28;101028.75;;;35.71;30.34
56042;BME280;48756;41.374;2.066;2022-07-10T12:33:58;101020.28;;;36.06;31.51
56042;BME280;48756;41.374;2.066;2022-07-10T12:36:26;101021.13;;;35.82;31.64
56042;BME280;48756;41.374;2.066;2022-07-10T12:38:55;101022.00;;;35.91;32.38
56042;BME280;48756;41.374;2.066;2022-07-10T12:41:22;101019.06;;;36.09;31.73
56042;BME280;48756;41.374;2.066;2022-07-10T12:43:49;101015.91;;;35.48;33.41
56042;BME280;48756;41.374;2.066;2022-07-10T12:46:16;101024.66;;;35.18;33.76
56042;BME280;48756;41.374;2.066;2022-07-10T12:48:43;101022.09;;;35.00;34.57
56042;BME280;48756;41.374;2.066;2022-07-10T12:51:19;101020.75;;;35.28;34.87
56042;BME280;48756;41.374;2.066;2022-07-10T12:53:45;101019.44;;;35.33;35.65
56042;BME280;48756;41.374;2.066;2022-07-10T12:56:25;101021.25;;;34.57;37.92
56042;BME280;48756;41.374;2.066;2022-07-10T12:58:50;101015.19;;;35.30;36.68
56042;BME280;48756;41.374;2.066;2022-07-10T13:01:16;101009.97;;;35.61;36.60
56042;BME280;48756;41.374;2.066;2022-07-10T13:03:41;101011.78;;;35.20;37.10
56042;BME280;48756;41.374;2.066;2022-07-10T13:06:06;101012.66;;;35.20;37.63
56042;BME280;48756;41.374;2.066;2022-07-10T13:08:50;101020.78;;;35.12;36.87
56042;BME280;48756;41.374;2.066;2022-07-10T13:11:15;101012.47;;;34.29;38.00
56042;BME280;48756;41.374;2.066;2022-07-10T13:13:40;101024.63;;;34.25;38.52